createdAt,value
2019-03-03T00:03:14.082Z,2.40
2019-03-03T00:08:18.195Z,2.00
2019-03-03T00:13:22.413Z,3.40
2019-03-03T00:18:26.478Z,2.00
2019-03-03T00:23:30.597Z,2.00
2019-03-03T00:28:34.830Z,2.00
2019-03-03T00:33:38.995Z,2.00
2019-03-03T00:39:11.048Z,2.50
2019-03-03T00:44:33.913Z,2.00
2019-03-03T00:49:49.294Z,2.00
2019-03-03T00:55:08.434Z,1.20
2019-03-03T01:00:28.026Z,2.20
2019-03-03T01:05:50.702Z,1.00
2019-03-03T01:11:16.876Z,2.00
2019-03-03T01:16:32.775Z,2.50
2019-03-03T01:21:58.674Z,2.00
2019-03-03T01:27:02.837Z,2.00
2019-03-03T01:32:07.013Z,2.25
2019-03-03T01:37:11.015Z,2.00
2019-03-03T01:42:15.163Z,2.20
2019-03-03T01:47:19.296Z,2.40
2019-03-03T01:52:23.463Z,1.60
2019-03-03T01:57:27.533Z,2.00
2019-03-03T02:02:31.953Z,2.00
2019-03-03T02:07:36.208Z,1.00
2019-03-03T02:12:40.400Z,1.00
2019-03-03T02:17:44.540Z,1.50
2019-03-03T02:22:48.662Z,1.50
2019-03-03T02:27:52.813Z,2.00
2019-03-03T02:32:56.870Z,2.00
2019-03-03T02:38:01.071Z,1.50
2019-03-03T02:43:05.286Z,2.00
2019-03-03T02:48:09.326Z,1.20
2019-03-03T02:53:13.391Z,1.20
2019-03-03T02:58:17.606Z,1.00
2019-03-03T03:03:22.386Z,2.00
2019-03-03T03:08:31.052Z,1.00
2019-03-03T03:13:41.426Z,1.00
2019-03-03T03:18:58.641Z,2.00
2019-03-03T03:24:27.542Z,1.00
2019-03-03T03:29:49.422Z,1.00
2019-03-03T03:35:11.131Z,1.20
2019-03-03T03:40:32.935Z,1.00
2019-03-03T03:45:56.158Z,2.00
2019-03-03T03:51:28.372Z,1.00
2019-03-03T03:56:51.737Z,1.50
2019-03-03T04:02:20.966Z,1.00
2019-03-03T04:07:34.640Z,1.00
2019-03-03T04:12:46.553Z,1.25
2019-03-03T04:18:21.450Z,1.00
2019-03-03T04:23:35.776Z,1.00
2019-03-03T04:29:11.066Z,1.50
2019-03-03T04:34:24.284Z,0.20
2019-03-03T04:39:43.815Z,0.50
2019-03-03T04:44:55.402Z,1.00
2019-03-03T04:50:17.441Z,1.20
2019-03-03T04:55:39.321Z,1.00
2019-03-03T05:00:50.266Z,1.00
2019-03-03T05:06:16.370Z,1.00
2019-03-03T05:12:27.205Z,1.00
2019-03-03T05:17:41.443Z,1.00
2019-03-03T05:22:45.541Z,1.00
2019-03-03T05:27:49.559Z,1.00
2019-03-03T05:32:53.681Z,0.75
2019-03-03T05:37:57.705Z,0.50
2019-03-03T05:43:01.846Z,0.00
2019-03-03T05:48:05.961Z,1.00
2019-03-03T05:53:10.127Z,1.00
2019-03-03T05:58:14.132Z,1.00
2019-03-03T06:03:18.276Z,0.20
2019-03-03T06:08:22.494Z,0.80
2019-03-03T06:13:26.553Z,0.75
2019-03-03T06:18:30.623Z,0.75
2019-03-03T06:23:34.769Z,1.00
2019-03-03T06:28:38.945Z,0.50
2019-03-03T06:33:43.095Z,0.75
2019-03-03T06:38:47.242Z,1.00
2019-03-03T06:43:51.371Z,0.25
2019-03-03T06:48:55.603Z,1.00
2019-03-03T06:53:59.628Z,0.00
2019-03-03T06:59:03.669Z,0.00
2019-03-03T07:04:07.800Z,0.25
2019-03-03T07:09:12.010Z,0.00
2019-03-03T07:14:16.090Z,1.00
2019-03-03T07:19:20.224Z,0.25
2019-03-03T07:24:24.255Z,1.00
2019-03-03T07:29:28.353Z,0.80
2019-03-03T07:34:32.474Z,0.00
2019-03-03T07:39:36.591Z,1.00
2019-03-03T07:44:40.636Z,0.00
2019-03-03T07:49:44.762Z,1.00
2019-03-03T07:54:48.786Z,0.50
2019-03-03T07:59:52.801Z,1.00
2019-03-03T08:04:57.018Z,1.00
2019-03-03T08:10:01.335Z,1.00
2019-03-03T08:20:48.371Z,1.00
2019-03-03T08:25:52.504Z,0.50
2019-03-03T08:30:56.646Z,0.50
2019-03-03T08:36:26.473Z,0.80
2019-03-03T08:41:32.184Z,1.00
2019-03-03T08:46:44.462Z,0.40
2019-03-03T08:52:10.905Z,2.25
2019-03-03T08:57:33.025Z,2.00
2019-03-03T09:02:54.937Z,1.60
2019-03-03T09:08:17.961Z,2.00
2019-03-03T09:13:40.195Z,1.40
2019-03-03T09:18:56.079Z,1.50
2019-03-03T09:24:25.170Z,2.00
2019-03-03T09:29:47.013Z,2.00
2019-03-03T09:35:08.876Z,2.00
2019-03-03T09:40:31.304Z,2.00
2019-03-03T09:45:59.409Z,2.00
2019-03-03T09:51:09.650Z,2.00
2019-03-03T09:56:31.554Z,2.00
2019-03-03T10:02:09.825Z,2.00
2019-03-03T10:07:22.313Z,1.60
2019-03-03T10:12:44.100Z,1.67
2019-03-03T10:18:07.099Z,2.00
2019-03-03T10:23:31.750Z,1.50
2019-03-03T10:29:10.135Z,2.60
2019-03-03T10:34:30.813Z,2.00
2019-03-03T10:40:09.662Z,2.00
2019-03-03T10:45:39.754Z,1.80
2019-03-03T10:50:54.992Z,1.75
2019-03-03T10:56:22.865Z,2.60
2019-03-03T11:41:59.532Z,1.60
2019-03-03T11:47:17.529Z,3.00
2019-03-03T11:53:02.875Z,3.00
2019-03-03T11:58:27.129Z,2.00
2019-03-03T12:03:55.085Z,1.00
2019-03-03T12:09:11.262Z,2.00
2019-03-03T12:14:32.066Z,1.80
2019-03-03T12:19:52.257Z,2.00
2019-03-03T12:25:06.275Z,2.25
2019-03-03T12:30:22.685Z,2.00
2019-03-03T12:35:58.209Z,2.20
2019-03-03T12:41:12.245Z,1.25
2019-03-03T12:46:45.099Z,2.00
2019-03-03T12:52:23.766Z,2.00
2019-03-03T13:03:08.945Z,2.00
2019-03-03T13:20:07.837Z,3.00
2019-03-03T13:25:32.496Z,1.00
2019-03-03T13:30:58.409Z,3.00
2019-03-03T13:36:20.422Z,1.60
2019-03-03T14:13:24.325Z,2.00
2019-03-03T15:14:53.381Z,1.80
2019-03-03T15:47:00.925Z,1.75
2019-03-03T15:53:00.592Z,1.00
2019-03-03T16:38:06.474Z,1.00
2019-03-03T16:43:10.655Z,1.00
2019-03-03T16:53:49.353Z,0.33
2019-03-03T16:58:53.947Z,2.00
2019-03-03T17:03:58.440Z,1.00
2019-03-03T17:09:04.436Z,1.00
2019-03-03T17:14:09.286Z,1.00
2019-03-03T17:19:13.600Z,2.00
2019-03-03T17:24:18.016Z,1.00
2019-03-03T17:29:22.444Z,1.00
2019-03-03T17:39:33.808Z,1.00
2019-03-03T17:44:38.042Z,0.00
2019-03-03T17:49:42.374Z,1.00
2019-03-03T17:54:46.601Z,0.80
2019-03-03T18:04:58.148Z,1.25
2019-03-03T18:10:02.565Z,1.00
2019-03-03T18:15:12.424Z,1.00
2019-03-03T18:20:17.180Z,0.80
2019-03-03T19:14:52.826Z,2.60
2019-03-03T19:26:02.127Z,0.40
2019-03-03T19:31:08.201Z,1.00
2019-03-03T19:36:17.147Z,0.00
2019-03-03T19:41:23.521Z,0.00
2019-03-03T19:46:36.531Z,0.00
2019-03-03T19:51:43.112Z,0.00
2019-03-03T19:56:51.496Z,0.00
2019-03-03T20:19:26.057Z,0.00
2019-03-03T20:24:30.563Z,0.00
2019-03-03T20:29:35.126Z,0.00
2019-03-03T20:34:39.898Z,0.60
2019-03-03T20:39:44.739Z,0.00
2019-03-03T20:44:49.367Z,0.25
2019-03-03T20:49:54.960Z,0.00
2019-03-03T20:55:00.757Z,0.00
2019-03-03T21:06:18.028Z,0.00
2019-03-03T21:11:23.824Z,0.00
2019-03-03T21:16:30.205Z,0.00
2019-03-03T21:21:35.290Z,0.00
2019-03-03T21:26:40.400Z,0.00
2019-03-03T21:31:47.241Z,0.00
2019-03-03T21:36:51.556Z,0.00
2019-03-03T21:41:56.013Z,0.00
2019-03-03T21:47:00.290Z,0.00
2019-03-03T21:52:04.749Z,0.00
2019-03-03T21:57:09.207Z,0.00
2019-03-03T22:02:13.809Z,0.00
2019-03-03T22:07:18.400Z,0.00
2019-03-03T22:12:22.723Z,0.00
2019-03-03T22:17:27.203Z,0.00
2019-03-03T22:22:31.598Z,0.00
2019-03-03T22:27:35.796Z,0.00
2019-03-03T22:32:40.232Z,0.00
2019-03-03T22:37:44.812Z,0.00
2019-03-03T22:42:49.193Z,0.00
2019-03-03T22:47:53.590Z,0.00
2019-03-03T22:52:58.037Z,0.00
2019-03-03T22:58:02.304Z,0.00
2019-03-03T23:03:06.701Z,0.00
2019-03-03T23:08:41.734Z,0.00
2019-03-03T23:14:03.512Z,0.00
2019-03-03T23:20:07.050Z,0.00
2019-03-03T23:25:44.989Z,0.00
2019-03-03T23:30:49.874Z,0.00
2019-03-03T23:35:54.420Z,0.00
2019-03-03T23:40:59.556Z,0.00
2019-03-03T23:46:04.023Z,0.00
2019-03-03T23:51:08.608Z,0.00
2019-03-03T23:56:13.218Z,0.00
